Grandview Heights, Ohio
Current Conditions -  °F | °C
As of 12:53 PM on Thursday 23 Oct 2014 (Local Time) from KOSU Reporting Station
Clear Clear  
Wind Chill: 52°   Ceiling: Unl
Heat Index: 52°   Visibility: 10mi
Dew Point: 42°   Wind: 9mph
Humidity: 69%   Direction: 350°N
Pressure: 30.22"   Gusts: NA
Location:  39.987°N, 83.0425°W
Report Text: KOSU 231653Z 35008KT 10SM CLR 11/06 A3022 RMK AO2 SLP236 T01110056
Loading
Personal Weather Stations






























Interactive Weather Map
Tropical Storm Tracking
New forecast layout! Learn more

10-Day Weather Forecast

Advertisements
Track Severe Weather on mobile